sensor_id;sensor_type;location;lat;lon;timestamp;P1;durP1;ratioP1;P2;durP2;ratioP2
17741;SDS011;8993;51.822;-2.268;2023-04-24T00:04:10;52.19;;;30.31;;
17741;SDS011;8993;51.822;-2.268;2023-04-24T00:09:14;26.97;;;18.11;;
17741;SDS011;8993;51.822;-2.268;2023-04-24T00:14:21;20.76;;;14.91;;
17741;SDS011;8993;51.822;-2.268;2023-04-24T00:19:28;25.26;;;16.62;;
17741;SDS011;8993;51.822;-2.268;2023-04-24T00:24:32;27.97;;;18.57;;
17741;SDS011;8993;51.822;-2.268;2023-04-24T00:29:40;24.45;;;16.87;;
17741;SDS011;8993;51.822;-2.268;2023-04-24T00:34:44;28.34;;;18.93;;
17741;SDS011;8993;51.822;-2.268;2023-04-24T00:39:49;26.97;;;18.12;;
17741;SDS011;8993;51.822;-2.268;2023-04-24T00:44:54;29.31;;;19.92;;
17741;SDS011;8993;51.822;-2.268;2023-04-24T00:49:58;29.27;;;19.70;;
17741;SDS011;8993;51.822;-2.268;2023-04-24T00:55:03;39.59;;;24.30;;
17741;SDS011;8993;51.822;-2.268;2023-04-24T01:00:07;36.39;;;22.38;;
17741;SDS011;8993;51.822;-2.268;2023-04-24T01:05:12;31.23;;;20.00;;
17741;SDS011;8993;51.822;-2.268;2023-04-24T01:10:16;31.23;;;20.47;;
17741;SDS011;8993;51.822;-2.268;2023-04-24T01:15:20;32.06;;;20.69;;
17741;SDS011;8993;51.822;-2.268;2023-04-24T01:20:25;26.88;;;18.23;;
17741;SDS011;8993;51.822;-2.268;2023-04-24T01:25:29;34.44;;;21.24;;
17741;SDS011;8993;51.822;-2.268;2023-04-24T01:30:34;27.39;;;18.14;;
17741;SDS011;8993;51.822;-2.268;2023-04-24T01:35:38;37.60;;;22.62;;
17741;SDS011;8993;51.822;-2.268;2023-04-24T01:40:43;30.10;;;19.85;;
17741;SDS011;8993;51.822;-2.268;2023-04-24T01:45:47;34.36;;;21.57;;
17741;SDS011;8993;51.822;-2.268;2023-04-24T01:50:54;24.19;;;16.94;;
17741;SDS011;8993;51.822;-2.268;2023-04-24T01:55:58;25.29;;;16.66;;
17741;SDS011;8993;51.822;-2.268;2023-04-24T02:01:03;25.43;;;17.32;;
17741;SDS011;8993;51.822;-2.268;2023-04-24T02:06:07;22.72;;;15.51;;
17741;SDS011;8993;51.822;-2.268;2023-04-24T02:11:12;19.71;;;14.79;;
17741;SDS011;8993;51.822;-2.268;2023-04-24T02:16:16;19.68;;;14.33;;
17741;SDS011;8993;51.822;-2.268;2023-04-24T02:21:20;20.29;;;14.05;;
17741;SDS011;8993;51.822;-2.268;2023-04-24T02:26:25;21.12;;;14.20;;
17741;SDS011;8993;51.822;-2.268;2023-04-24T02:31:29;20.82;;;14.16;;
17741;SDS011;8993;51.822;-2.268;2023-04-24T02:36:35;26.66;;;16.36;;
17741;SDS011;8993;51.822;-2.268;2023-04-24T02:41:39;25.56;;;16.61;;
17741;SDS011;8993;51.822;-2.268;2023-04-24T02:46:43;25.47;;;16.78;;
17741;SDS011;8993;51.822;-2.268;2023-04-24T02:51:48;24.76;;;15.79;;
17741;SDS011;8993;51.822;-2.268;2023-04-24T02:56:52;37.74;;;21.27;;
17741;SDS011;8993;51.822;-2.268;2023-04-24T03:01:56;30.95;;;19.56;;
17741;SDS011;8993;51.822;-2.268;2023-04-24T03:07:00;20.39;;;14.04;;
17741;SDS011;8993;51.822;-2.268;2023-04-24T03:12:05;21.53;;;14.53;;
17741;SDS011;8993;51.822;-2.268;2023-04-24T03:17:09;19.00;;;12.97;;
17741;SDS011;8993;51.822;-2.268;2023-04-24T03:22:14;16.72;;;12.29;;
17741;SDS011;8993;51.822;-2.268;2023-04-24T03:27:20;18.96;;;13.61;;
17741;SDS011;8993;51.822;-2.268;2023-04-24T03:32:24;22.93;;;15.12;;
17741;SDS011;8993;51.822;-2.268;2023-04-24T03:37:29;21.41;;;14.85;;
17741;SDS011;8993;51.822;-2.268;2023-04-24T03:42:33;25.78;;;17.08;;
17741;SDS011;8993;51.822;-2.268;2023-04-24T03:47:37;27.75;;;18.42;;
17741;SDS011;8993;51.822;-2.268;2023-04-24T03:52:41;28.49;;;17.83;;
17741;SDS011;8993;51.822;-2.268;2023-04-24T03:57:46;21.52;;;15.04;;
17741;SDS011;8993;51.822;-2.268;2023-04-24T04:02:50;20.75;;;14.49;;
17741;SDS011;8993;51.822;-2.268;2023-04-24T04:07:55;17.30;;;12.17;;
17741;SDS011;8993;51.822;-2.268;2023-04-24T04:13:00;29.87;;;17.65;;
17741;SDS011;8993;51.822;-2.268;2023-04-24T04:18:04;16.58;;;11.95;;
17741;SDS011;8993;51.822;-2.268;2023-04-24T04:23:08;16.01;;;11.14;;
17741;SDS011;8993;51.822;-2.268;2023-04-24T04:28:13;25.57;;;16.36;;
17741;SDS011;8993;51.822;-2.268;2023-04-24T04:33:17;18.52;;;12.63;;
17741;SDS011;8993;51.822;-2.268;2023-04-24T04:38:21;28.33;;;17.65;;
17741;SDS011;8993;51.822;-2.268;2023-04-24T04:43:26;33.77;;;20.49;;
17741;SDS011;8993;51.822;-2.268;2023-04-24T04:48:30;44.83;;;24.90;;
17741;SDS011;8993;51.822;-2.268;2023-04-24T04:53:34;37.26;;;23.34;;
17741;SDS011;8993;51.822;-2.268;2023-04-24T04:58:38;36.83;;;22.60;;
17741;SDS011;8993;51.822;-2.268;2023-04-24T05:03:43;46.05;;;26.69;;
17741;SDS011;8993;51.822;-2.268;2023-04-24T05:08:48;27.54;;;18.53;;
17741;SDS011;8993;51.822;-2.268;2023-04-24T05:13:52;26.81;;;17.78;;
17741;SDS011;8993;51.822;-2.268;2023-04-24T05:18:56;23.13;;;16.48;;
17741;SDS011;8993;51.822;-2.268;2023-04-24T05:24:00;26.34;;;16.88;;
17741;SDS011;8993;51.822;-2.268;2023-04-24T05:29:05;26.66;;;16.30;;
17741;SDS011;8993;51.822;-2.268;2023-04-24T05:34:09;29.13;;;16.06;;
17741;SDS011;8993;51.822;-2.268;2023-04-24T05:39:13;21.15;;;13.29;;
17741;SDS011;8993;51.822;-2.268;2023-04-24T05:44:17;25.34;;;15.60;;
17741;SDS011;8993;51.822;-2.268;2023-04-24T05:49:22;37.11;;;21.66;;
17741;SDS011;8993;51.822;-2.268;2023-04-24T05:54:26;28.42;;;17.76;;
17741;SDS011;8993;51.822;-2.268;2023-04-24T05:59:30;22.59;;;14.83;;
17741;SDS011;8993;51.822;-2.268;2023-04-24T06:04:34;25.09;;;15.70;;
17741;SDS011;8993;51.822;-2.268;2023-04-24T06:09:38;26.80;;;16.55;;
17741;SDS011;8993;51.822;-2.268;2023-04-24T06:14:42;31.73;;;19.14;;
17741;SDS011;8993;51.822;-2.268;2023-04-24T06:19:47;36.27;;;20.09;;
17741;SDS011;8993;51.822;-2.268;2023-04-24T06:24:51;30.49;;;18.21;;
17741;SDS011;8993;51.822;-2.268;2023-04-24T06:29:55;33.87;;;19.54;;
17741;SDS011;8993;51.822;-2.268;2023-04-24T06:34:59;45.87;;;24.45;;
17741;SDS011;8993;51.822;-2.268;2023-04-24T06:40:05;52.53;;;27.04;;
17741;SDS011;8993;51.822;-2.268;2023-04-24T06:45:09;46.41;;;25.51;;
17741;SDS011;8993;51.822;-2.268;2023-04-24T06:50:13;42.17;;;24.41;;
17741;SDS011;8993;51.822;-2.268;2023-04-24T06:55:17;34.78;;;20.63;;
17741;SDS011;8993;51.822;-2.268;2023-04-24T07:00:21;36.02;;;20.75;;
17741;SDS011;8993;51.822;-2.268;2023-04-24T07:05:27;38.94;;;22.57;;
17741;SDS011;8993;51.822;-2.268;2023-04-24T07:10:29;41.11;;;23.78;;
17741;SDS011;8993;51.822;-2.268;2023-04-24T07:15:33;34.27;;;21.36;;
17741;SDS011;8993;51.822;-2.268;2023-04-24T07:20:38;37.20;;;22.96;;
17741;SDS011;8993;51.822;-2.268;2023-04-24T07:25:42;40.98;;;24.65;;
17741;SDS011;8993;51.822;-2.268;2023-04-24T07:30:46;44.31;;;25.63;;
17741;SDS011;8993;51.822;-2.268;2023-04-24T07:35:51;33.09;;;20.17;;
17741;SDS011;8993;51.822;-2.268;2023-04-24T07:40:55;23.99;;;15.05;;
17741;SDS011;8993;51.822;-2.268;2023-04-24T07:46:02;23.22;;;14.88;;
17741;SDS011;8993;51.822;-2.268;2023-04-24T07:51:06;22.96;;;16.37;;
17741;SDS011;8993;51.822;-2.268;2023-04-24T07:56:10;21.86;;;14.44;;
17741;SDS011;8993;51.822;-2.268;2023-04-24T08:01:14;25.67;;;16.09;;
17741;SDS011;8993;51.822;-2.268;2023-04-24T08:06:19;26.60;;;16.27;;
17741;SDS011;8993;51.822;-2.268;2023-04-24T08:11:23;17.42;;;11.24;;
17741;SDS011;8993;51.822;-2.268;2023-04-24T08:16:27;19.83;;;12.17;;
17741;SDS011;8993;51.822;-2.268;2023-04-24T08:21:32;18.85;;;11.89;;
17741;SDS011;8993;51.822;-2.268;2023-04-24T08:26:39;17.67;;;11.56;;
17741;SDS011;8993;51.822;-2.268;2023-04-24T08:31:43;19.93;;;12.34;;
17741;SDS011;8993;51.822;-2.268;2023-04-24T08:36:47;21.65;;;13.55;;
17741;SDS011;8993;51.822;-2.268;2023-04-24T08:41:52;21.78;;;11.94;;
17741;SDS011;8993;51.822;-2.268;2023-04-24T08:46:56;17.75;;;9.65;;
17741;SDS011;8993;51.822;-2.268;2023-04-24T08:52:01;20.24;;;9.06;;
17741;SDS011;8993;51.822;-2.268;2023-04-24T08:57:05;19.69;;;9.22;;
17741;SDS011;8993;51.822;-2.268;2023-04-24T09:02:11;21.39;;;9.43;;
17741;SDS011;8993;51.822;-2.268;2023-04-24T09:07:16;21.39;;;9.13;;
17741;SDS011;8993;51.822;-2.268;2023-04-24T09:12:21;19.22;;;7.77;;
17741;SDS011;8993;51.822;-2.268;2023-04-24T09:17:28;18.26;;;7.54;;
17741;SDS011;8993;51.822;-2.268;2023-04-24T09:22:33;15.25;;;7.67;;
17741;SDS011;8993;51.822;-2.268;2023-04-24T09:27:41;19.89;;;8.07;;
17741;SDS011;8993;51.822;-2.268;2023-04-24T09:32:42;20.32;;;9.45;;
17741;SDS011;8993;51.822;-2.268;2023-04-24T09:37:47;24.23;;;10.14;;
17741;SDS011;8993;51.822;-2.268;2023-04-24T09:42:52;22.46;;;10.27;;
17741;SDS011;8993;51.822;-2.268;2023-04-24T09:47:56;22.12;;;9.87;;
17741;SDS011;8993;51.822;-2.268;2023-04-24T09:53:02;20.23;;;10.48;;
17741;SDS011;8993;51.822;-2.268;2023-04-24T09:58:05;26.41;;;10.98;;
17741;SDS011;8993;51.822;-2.268;2023-04-24T10:03:10;22.74;;;10.86;;
17741;SDS011;8993;51.822;-2.268;2023-04-24T10:08:14;24.31;;;11.35;;
17741;SDS011;8993;51.822;-2.268;2023-04-24T10:13:19;21.92;;;10.94;;
17741;SDS011;8993;51.822;-2.268;2023-04-24T10:18:23;24.74;;;11.75;;
17741;SDS011;8993;51.822;-2.268;2023-04-24T10:23:28;23.67;;;10.71;;
17741;SDS011;8993;51.822;-2.268;2023-04-24T10:28:33;25.46;;;11.45;;
17741;SDS011;8993;51.822;-2.268;2023-04-24T10:33:37;29.12;;;13.11;;
17741;SDS011;8993;51.822;-2.268;2023-04-24T10:38:42;28.77;;;11.15;;
17741;SDS011;8993;51.822;-2.268;2023-04-24T10:43:46;23.99;;;9.91;;
17741;SDS011;8993;51.822;-2.268;2023-04-24T10:48:52;23.08;;;9.24;;
17741;SDS011;8993;51.822;-2.268;2023-04-24T10:53:58;24.94;;;9.42;;
17741;SDS011;8993;51.822;-2.268;2023-04-24T10:59:03;26.05;;;9.28;;
17741;SDS011;8993;51.822;-2.268;2023-04-24T11:04:07;21.71;;;9.04;;
17741;SDS011;8993;51.822;-2.268;2023-04-24T11:09:12;23.74;;;8.69;;
17741;SDS011;8993;51.822;-2.268;2023-04-24T11:14:16;21.50;;;9.22;;
17741;SDS011;8993;51.822;-2.268;2023-04-24T11:19:21;26.05;;;10.44;;
17741;SDS011;8993;51.822;-2.268;2023-04-24T11:24:27;24.59;;;9.81;;
17741;SDS011;8993;51.822;-2.268;2023-04-24T11:34:34;24.98;;;12.37;;
17741;SDS011;8993;51.822;-2.268;2023-04-24T11:39:38;27.44;;;11.56;;
17741;SDS011;8993;51.822;-2.268;2023-04-24T11:44:43;29.59;;;13.44;;
17741;SDS011;8993;51.822;-2.268;2023-04-24T11:49:50;33.73;;;15.32;;
17741;SDS011;8993;51.822;-2.268;2023-04-24T11:54:55;36.88;;;16.35;;
17741;SDS011;8993;51.822;-2.268;2023-04-24T11:59:59;31.92;;;14.42;;
17741;SDS011;8993;51.822;-2.268;2023-04-24T12:05:04;30.34;;;14.51;;
17741;SDS011;8993;51.822;-2.268;2023-04-24T12:10:08;33.44;;;15.67;;
17741;SDS011;8993;51.822;-2.268;2023-04-24T12:15:12;37.16;;;15.74;;
17741;SDS011;8993;51.822;-2.268;2023-04-24T12:20:17;26.33;;;12.25;;
17741;SDS011;8993;51.822;-2.268;2023-04-24T12:25:22;25.48;;;12.05;;
17741;SDS011;8993;51.822;-2.268;2023-04-24T12:30:27;25.81;;;10.44;;
17741;SDS011;8993;51.822;-2.268;2023-04-24T12:35:31;25.33;;;10.32;;
17741;SDS011;8993;51.822;-2.268;2023-04-24T12:40:35;43.21;;;16.84;;
17741;SDS011;8993;51.822;-2.268;2023-04-24T12:45:39;27.24;;;11.98;;
17741;SDS011;8993;51.822;-2.268;2023-04-24T12:50:44;33.11;;;14.10;;
17741;SDS011;8993;51.822;-2.268;2023-04-24T12:55:49;26.89;;;11.41;;
17741;SDS011;8993;51.822;-2.268;2023-04-24T13:00:53;26.43;;;10.74;;
17741;SDS011;8993;51.822;-2.268;2023-04-24T13:05:57;32.25;;;13.57;;
17741;SDS011;8993;51.822;-2.268;2023-04-24T13:11:02;28.05;;;11.99;;
17741;SDS011;8993;51.822;-2.268;2023-04-24T13:16:06;20.97;;;9.87;;
17741;SDS011;8993;51.822;-2.268;2023-04-24T13:21:11;16.48;;;8.03;;
17741;SDS011;8993;51.822;-2.268;2023-04-24T13:26:15;16.54;;;7.32;;
17741;SDS011;8993;51.822;-2.268;2023-04-24T13:31:19;8.76;;;4.85;;
17741;SDS011;8993;51.822;-2.268;2023-04-24T13:36:24;11.76;;;5.79;;
17741;SDS011;8993;51.822;-2.268;2023-04-24T13:41:28;7.03;;;4.91;;
17741;SDS011;8993;51.822;-2.268;2023-04-24T13:46:33;8.95;;;5.04;;
17741;SDS011;8993;51.822;-2.268;2023-04-24T13:51:37;7.23;;;3.16;;
17741;SDS011;8993;51.822;-2.268;2023-04-24T13:56:42;10.22;;;4.58;;
17741;SDS011;8993;51.822;-2.268;2023-04-24T14:01:46;9.78;;;5.43;;
17741;SDS011;8993;51.822;-2.268;2023-04-24T14:06:50;13.00;;;6.22;;
17741;SDS011;8993;51.822;-2.268;2023-04-24T14:11:55;12.59;;;6.60;;
17741;SDS011;8993;51.822;-2.268;2023-04-24T14:16:59;6.12;;;2.82;;
17741;SDS011;8993;51.822;-2.268;2023-04-24T14:22:04;7.35;;;3.56;;
17741;SDS011;8993;51.822;-2.268;2023-04-24T14:27:08;9.86;;;4.31;;
17741;SDS011;8993;51.822;-2.268;2023-04-24T14:32:13;9.85;;;3.77;;
17741;SDS011;8993;51.822;-2.268;2023-04-24T14:37:17;6.89;;;3.42;;
17741;SDS011;8993;51.822;-2.268;2023-04-24T14:42:22;7.06;;;2.41;;
17741;SDS011;8993;51.822;-2.268;2023-04-24T14:47:26;6.42;;;2.32;;
17741;SDS011;8993;51.822;-2.268;2023-04-24T14:52:33;6.47;;;3.09;;
17741;SDS011;8993;51.822;-2.268;2023-04-24T14:57:38;5.65;;;2.54;;
17741;SDS011;8993;51.822;-2.268;2023-04-24T15:02:42;7.26;;;2.80;;
17741;SDS011;8993;51.822;-2.268;2023-04-24T15:07:46;7.03;;;3.16;;
17741;SDS011;8993;51.822;-2.268;2023-04-24T15:12:51;10.43;;;4.32;;
17741;SDS011;8993;51.822;-2.268;2023-04-24T15:17:55;10.92;;;3.96;;
17741;SDS011;8993;51.822;-2.268;2023-04-24T15:22:59;10.38;;;4.32;;
17741;SDS011;8993;51.822;-2.268;2023-04-24T15:28:07;11.79;;;5.05;;
17741;SDS011;8993;51.822;-2.268;2023-04-24T15:33:11;11.38;;;5.08;;
17741;SDS011;8993;51.822;-2.268;2023-04-24T15:38:16;10.03;;;5.03;;
17741;SDS011;8993;51.822;-2.268;2023-04-24T15:43:21;16.47;;;6.37;;
17741;SDS011;8993;51.822;-2.268;2023-04-24T15:48:28;15.35;;;7.05;;
17741;SDS011;8993;51.822;-2.268;2023-04-24T15:53:32;13.49;;;6.15;;
17741;SDS011;8993;51.822;-2.268;2023-04-24T15:58:38;15.54;;;6.65;;
17741;SDS011;8993;51.822;-2.268;2023-04-24T16:03:43;16.12;;;7.08;;
17741;SDS011;8993;51.822;-2.268;2023-04-24T16:08:50;15.54;;;7.03;;
17741;SDS011;8993;51.822;-2.268;2023-04-24T16:13:54;11.00;;;4.45;;
17741;SDS011;8993;51.822;-2.268;2023-04-24T16:18:59;15.16;;;5.21;;
17741;SDS011;8993;51.822;-2.268;2023-04-24T16:24:03;11.96;;;4.42;;
17741;SDS011;8993;51.822;-2.268;2023-04-24T16:29:08;11.59;;;4.89;;
17741;SDS011;8993;51.822;-2.268;2023-04-24T16:34:12;11.28;;;3.94;;
17741;SDS011;8993;51.822;-2.268;2023-04-24T16:39:16;14.12;;;5.04;;
17741;SDS011;8993;51.822;-2.268;2023-04-24T16:44:21;11.11;;;4.30;;
17741;SDS011;8993;51.822;-2.268;2023-04-24T16:49:25;11.03;;;4.27;;
17741;SDS011;8993;51.822;-2.268;2023-04-24T16:54:29;10.00;;;3.54;;
17741;SDS011;8993;51.822;-2.268;2023-04-24T16:59:34;11.23;;;4.19;;
17741;SDS011;8993;51.822;-2.268;2023-04-24T17:04:38;10.80;;;4.73;;
17741;SDS011;8993;51.822;-2.268;2023-04-24T17:09:42;13.29;;;4.94;;
17741;SDS011;8993;51.822;-2.268;2023-04-24T17:14:46;11.48;;;5.16;;
17741;SDS011;8993;51.822;-2.268;2023-04-24T17:19:51;12.74;;;5.44;;
17741;SDS011;8993;51.822;-2.268;2023-04-24T17:24:57;16.64;;;6.54;;
17741;SDS011;8993;51.822;-2.268;2023-04-24T17:30:02;14.14;;;5.96;;
17741;SDS011;8993;51.822;-2.268;2023-04-24T17:35:06;22.56;;;9.28;;
17741;SDS011;8993;51.822;-2.268;2023-04-24T17:40:10;18.38;;;6.65;;
17741;SDS011;8993;51.822;-2.268;2023-04-24T17:45:14;15.90;;;6.94;;
17741;SDS011;8993;51.822;-2.268;2023-04-24T17:50:20;15.41;;;5.36;;
17741;SDS011;8993;51.822;-2.268;2023-04-24T17:55:24;15.34;;;5.23;;
17741;SDS011;8993;51.822;-2.268;2023-04-24T18:00:30;19.99;;;7.05;;
17741;SDS011;8993;51.822;-2.268;2023-04-24T18:05:34;18.58;;;7.70;;
17741;SDS011;8993;51.822;-2.268;2023-04-24T18:10:38;15.78;;;6.55;;
17741;SDS011;8993;51.822;-2.268;2023-04-24T18:15:42;17.46;;;6.30;;
17741;SDS011;8993;51.822;-2.268;2023-04-24T18:20:47;16.72;;;6.03;;
17741;SDS011;8993;51.822;-2.268;2023-04-24T18:25:51;19.47;;;6.70;;
17741;SDS011;8993;51.822;-2.268;2023-04-24T18:30:55;16.43;;;6.84;;
17741;SDS011;8993;51.822;-2.268;2023-04-24T18:36:00;19.21;;;7.10;;
17741;SDS011;8993;51.822;-2.268;2023-04-24T18:41:04;20.28;;;7.65;;
17741;SDS011;8993;51.822;-2.268;2023-04-24T18:46:08;21.77;;;8.91;;
17741;SDS011;8993;51.822;-2.268;2023-04-24T18:51:13;23.98;;;8.99;;
17741;SDS011;8993;51.822;-2.268;2023-04-24T18:56:20;22.27;;;9.31;;
17741;SDS011;8993;51.822;-2.268;2023-04-24T19:01:24;25.92;;;10.25;;
17741;SDS011;8993;51.822;-2.268;2023-04-24T19:06:30;24.36;;;10.39;;
17741;SDS011;8993;51.822;-2.268;2023-04-24T19:11:34;25.32;;;11.74;;
17741;SDS011;8993;51.822;-2.268;2023-04-24T19:16:38;27.52;;;10.49;;
17741;SDS011;8993;51.822;-2.268;2023-04-24T19:21:43;24.13;;;9.96;;
17741;SDS011;8993;51.822;-2.268;2023-04-24T19:26:47;20.56;;;9.76;;
17741;SDS011;8993;51.822;-2.268;2023-04-24T19:31:52;24.84;;;10.70;;
17741;SDS011;8993;51.822;-2.268;2023-04-24T19:36:58;35.78;;;13.35;;
17741;SDS011;8993;51.822;-2.268;2023-04-24T19:42:03;27.13;;;11.29;;
17741;SDS011;8993;51.822;-2.268;2023-04-24T19:47:07;34.71;;;15.69;;
17741;SDS011;8993;51.822;-2.268;2023-04-24T19:52:11;29.54;;;13.78;;
17741;SDS011;8993;51.822;-2.268;2023-04-24T19:57:15;20.86;;;11.11;;
17741;SDS011;8993;51.822;-2.268;2023-04-24T20:02:20;18.60;;;9.52;;
17741;SDS011;8993;51.822;-2.268;2023-04-24T20:07:24;20.42;;;9.87;;
17741;SDS011;8993;51.822;-2.268;2023-04-24T20:12:28;28.60;;;13.20;;
17741;SDS011;8993;51.822;-2.268;2023-04-24T20:17:33;27.95;;;14.27;;
17741;SDS011;8993;51.822;-2.268;2023-04-24T20:22:37;31.29;;;16.30;;
17741;SDS011;8993;51.822;-2.268;2023-04-24T20:27:41;30.95;;;15.41;;
17741;SDS011;8993;51.822;-2.268;2023-04-24T20:32:46;33.52;;;16.35;;
17741;SDS011;8993;51.822;-2.268;2023-04-24T20:37:50;27.47;;;15.94;;
17741;SDS011;8993;51.822;-2.268;2023-04-24T20:42:55;29.88;;;15.74;;
17741;SDS011;8993;51.822;-2.268;2023-04-24T20:47:59;36.89;;;17.51;;
17741;SDS011;8993;51.822;-2.268;2023-04-24T20:53:04;27.61;;;14.82;;
17741;SDS011;8993;51.822;-2.268;2023-04-24T20:58:10;31.22;;;14.86;;
17741;SDS011;8993;51.822;-2.268;2023-04-24T21:03:15;34.99;;;16.63;;
17741;SDS011;8993;51.822;-2.268;2023-04-24T21:08:21;28.39;;;15.02;;
17741;SDS011;8993;51.822;-2.268;2023-04-24T21:13:25;33.15;;;16.62;;
17741;SDS011;8993;51.822;-2.268;2023-04-24T21:18:29;41.09;;;21.68;;
17741;SDS011;8993;51.822;-2.268;2023-04-24T21:23:36;23.81;;;8.88;;
17741;SDS011;8993;51.822;-2.268;2023-04-24T21:28:42;18.78;;;6.17;;
17741;SDS011;8993;51.822;-2.268;2023-04-24T21:33:47;20.71;;;5.37;;
17741;SDS011;8993;51.822;-2.268;2023-04-24T21:38:51;18.90;;;5.27;;
17741;SDS011;8993;51.822;-2.268;2023-04-24T21:43:55;21.31;;;5.85;;
17741;SDS011;8993;51.822;-2.268;2023-04-24T21:49:00;21.65;;;6.08;;
17741;SDS011;8993;51.822;-2.268;2023-04-24T21:54:04;19.41;;;6.27;;
17741;SDS011;8993;51.822;-2.268;2023-04-24T21:59:08;23.32;;;6.34;;
17741;SDS011;8993;51.822;-2.268;2023-04-24T22:04:13;27.34;;;6.98;;
17741;SDS011;8993;51.822;-2.268;2023-04-24T22:09:20;28.01;;;7.87;;
17741;SDS011;8993;51.822;-2.268;2023-04-24T22:14:25;25.84;;;7.53;;
17741;SDS011;8993;51.822;-2.268;2023-04-24T22:19:30;24.07;;;7.95;;
17741;SDS011;8993;51.822;-2.268;2023-04-24T22:24:36;30.21;;;9.10;;
17741;SDS011;8993;51.822;-2.268;2023-04-24T22:29:40;31.62;;;10.33;;
17741;SDS011;8993;51.822;-2.268;2023-04-24T22:34:45;23.49;;;10.17;;
17741;SDS011;8993;51.822;-2.268;2023-04-24T22:39:49;21.65;;;9.59;;
17741;SDS011;8993;51.822;-2.268;2023-04-24T22:44:54;18.52;;;8.37;;
17741;SDS011;8993;51.822;-2.268;2023-04-24T22:49:58;24.72;;;9.94;;
17741;SDS011;8993;51.822;-2.268;2023-04-24T22:55:02;26.79;;;11.55;;
17741;SDS011;8993;51.822;-2.268;2023-04-24T23:00:07;33.15;;;11.94;;
17741;SDS011;8993;51.822;-2.268;2023-04-24T23:05:10;25.29;;;10.08;;
17741;SDS011;8993;51.822;-2.268;2023-04-24T23:10:15;20.92;;;9.15;;
17741;SDS011;8993;51.822;-2.268;2023-04-24T23:15:21;19.15;;;9.03;;
17741;SDS011;8993;51.822;-2.268;2023-04-24T23:20:26;21.34;;;9.00;;
17741;SDS011;8993;51.822;-2.268;2023-04-24T23:25:30;17.04;;;8.09;;
17741;SDS011;8993;51.822;-2.268;2023-04-24T23:30:34;19.47;;;9.37;;
17741;SDS011;8993;51.822;-2.268;2023-04-24T23:35:38;21.70;;;9.65;;
17741;SDS011;8993;51.822;-2.268;2023-04-24T23:40:42;22.49;;;9.58;;
17741;SDS011;8993;51.822;-2.268;2023-04-24T23:45:46;27.31;;;10.64;;
17741;SDS011;8993;51.822;-2.268;2023-04-24T23:50:50;22.34;;;9.18;;
17741;SDS011;8993;51.822;-2.268;2023-04-24T23:55:55;19.46;;;9.08;;
